createdAt,value
2022-11-12T00:00:55.460Z,7.93
2022-11-12T00:03:22.241Z,8.07
2022-11-12T00:05:50.896Z,7.95
2022-11-12T00:08:18.302Z,8.75
2022-11-12T00:10:46.072Z,7.90
2022-11-12T00:13:13.680Z,6.43
2022-11-12T00:15:40.741Z,5.00
2022-11-12T00:18:08.663Z,5.03
2022-11-12T00:20:35.997Z,4.80
2022-11-12T00:23:03.699Z,4.65
2022-11-12T00:25:31.159Z,4.47
2022-11-12T00:28:05.682Z,5.10
2022-11-12T00:30:32.747Z,4.88
2022-11-12T00:33:03.832Z,5.50
2022-11-12T00:35:33.868Z,5.40
2022-11-12T00:38:01.770Z,5.50
2022-11-12T00:40:28.926Z,6.03
2022-11-12T00:42:55.697Z,6.60
2022-11-12T00:45:23.116Z,6.43
2022-11-12T00:47:49.820Z,7.00
2022-11-12T00:50:16.877Z,6.45
2022-11-12T00:52:43.758Z,6.28
2022-11-12T00:55:11.074Z,5.60
2022-11-12T00:57:38.016Z,5.80
2022-11-12T01:00:07.530Z,6.13
2022-11-12T01:02:42.330Z,6.80
2022-11-12T01:05:10.488Z,6.45
2022-11-12T01:07:38.335Z,6.60
2022-11-12T01:10:05.623Z,6.72
2022-11-12T01:12:32.808Z,6.90
2022-11-12T01:14:59.685Z,6.70
2022-11-12T01:17:26.415Z,6.85
2022-11-12T01:19:53.278Z,7.05
2022-11-12T01:22:20.656Z,6.97
2022-11-12T01:24:47.346Z,7.03
2022-11-12T01:27:14.609Z,7.20
2022-11-12T01:29:41.634Z,6.70
2022-11-12T01:32:08.727Z,7.00
2022-11-12T01:34:35.730Z,7.25
2022-11-12T01:37:02.360Z,7.05
2022-11-12T01:39:30.373Z,6.90
2022-11-12T01:41:57.520Z,7.00
2022-11-12T01:44:27.230Z,6.68
2022-11-12T01:47:41.496Z,6.63
2022-11-12T01:50:18.391Z,5.80
2022-11-12T01:52:55.152Z,6.38
2022-11-12T01:55:28.787Z,5.70
2022-11-12T01:58:05.315Z,6.20
2022-11-12T02:00:32.412Z,6.28
2022-11-12T02:03:01.378Z,6.05
2022-11-12T02:05:30.290Z,5.75
2022-11-12T02:07:58.270Z,5.50
2022-11-12T02:10:25.694Z,6.32
2022-11-12T02:13:12.012Z,6.65
2022-11-12T02:15:39.684Z,6.85
2022-11-12T02:18:07.084Z,6.80
2022-11-12T02:20:35.560Z,5.50
2022-11-12T02:23:02.850Z,4.82
2022-11-12T02:25:29.662Z,5.28
2022-11-12T02:27:57.169Z,5.82
2022-11-12T02:30:35.682Z,5.45
2022-11-12T02:33:02.576Z,6.30
2022-11-12T02:35:29.755Z,7.75
2022-11-12T02:37:56.924Z,7.43
2022-11-12T02:40:23.867Z,7.25
2022-11-12T02:42:50.625Z,6.25
2022-11-12T02:45:17.881Z,6.78
2022-11-12T02:47:44.690Z,5.78
2022-11-12T02:50:11.976Z,5.40
2022-11-12T02:52:40.575Z,5.60
2022-11-12T02:55:08.779Z,5.32
2022-11-12T02:57:36.045Z,5.88
2022-11-12T03:00:10.959Z,5.88
2022-11-12T03:02:43.487Z,5.95
2022-11-12T03:05:11.325Z,6.32
2022-11-12T03:07:38.805Z,6.53
2022-11-12T03:10:06.682Z,6.95
2022-11-12T03:12:33.944Z,6.75
2022-11-12T03:15:00.937Z,6.47
2022-11-12T03:17:27.662Z,6.03
2022-11-12T03:19:54.383Z,6.78
2022-11-12T03:22:21.054Z,7.00
2022-11-12T03:24:47.903Z,6.63
2022-11-12T03:27:14.662Z,6.95
2022-11-12T03:29:41.416Z,6.53
2022-11-12T03:32:08.034Z,7.22
2022-11-12T03:34:34.762Z,7.15
2022-11-12T03:37:01.526Z,7.57
2022-11-12T03:39:28.218Z,7.13
2022-11-12T03:41:54.952Z,7.43
2022-11-12T03:44:21.665Z,7.47
2022-11-12T03:46:48.326Z,6.97
2022-11-12T03:49:15.102Z,7.70
2022-11-12T03:51:41.924Z,7.53
2022-11-12T03:54:08.778Z,8.32
2022-11-12T03:56:35.544Z,8.25
2022-11-12T03:59:02.202Z,8.20
2022-11-12T04:01:29.231Z,8.00
2022-11-12T04:03:56.547Z,8.07
2022-11-12T04:06:42.754Z,9.15
2022-11-12T04:09:09.563Z,9.38
2022-11-12T04:11:36.370Z,8.85
2022-11-12T04:14:03.232Z,11.27
2022-11-12T04:16:48.611Z,11.38
2022-11-12T04:19:34.053Z,10.82
2022-11-12T04:22:09.071Z,11.25
2022-11-12T04:24:56.084Z,10.75
2022-11-12T04:27:27.923Z,10.60
2022-11-12T04:30:13.147Z,10.55
2022-11-12T04:32:50.019Z,10.07
2022-11-12T04:35:17.290Z,10.52
2022-11-12T04:37:46.920Z,10.48
2022-11-12T04:40:40.452Z,10.75
2022-11-12T04:43:28.837Z,10.82
2022-11-12T04:45:56.266Z,10.18
2022-11-12T04:48:24.081Z,10.45
2022-11-12T04:50:55.030Z,10.68
2022-11-12T04:53:21.915Z,11.70
2022-11-12T04:55:54.396Z,11.65
2022-11-12T04:58:21.848Z,10.82
2022-11-12T05:00:49.537Z,11.30
2022-11-12T05:03:17.469Z,10.98
2022-11-12T05:05:44.299Z,10.68
2022-11-12T05:08:11.869Z,11.57
2022-11-12T05:10:39.123Z,11.88
2022-11-12T05:13:05.936Z,11.02
2022-11-12T05:15:34.652Z,11.27
2022-11-12T05:18:01.418Z,11.50
2022-11-12T05:20:29.117Z,11.25
2022-11-12T05:23:06.420Z,11.32
2022-11-12T05:25:35.614Z,12.48
2022-11-12T05:28:02.508Z,12.38
2022-11-12T05:30:29.612Z,11.40
2022-11-12T05:32:56.821Z,10.82
2022-11-12T05:35:23.620Z,10.23
2022-11-12T05:37:50.474Z,11.18
2022-11-12T05:40:19.055Z,10.98
2022-11-12T05:42:46.094Z,10.15
2022-11-12T05:45:12.913Z,10.38
2022-11-12T05:47:39.597Z,10.85
2022-11-12T05:50:07.427Z,10.05
2022-11-12T05:52:34.587Z,11.40
2022-11-12T05:55:01.572Z,11.65
2022-11-12T05:57:28.377Z,11.00
2022-11-12T05:59:55.038Z,10.82
2022-11-12T06:02:22.536Z,11.10
2022-11-12T06:04:49.276Z,11.18
2022-11-12T06:07:16.031Z,11.38
2022-11-12T06:09:43.006Z,12.25
2022-11-12T06:12:10.732Z,11.07
2022-11-12T06:14:38.280Z,11.80
2022-11-12T06:17:05.506Z,11.85
2022-11-12T06:19:32.331Z,13.30
2022-11-12T06:21:59.134Z,13.38
2022-11-12T06:24:32.115Z,13.23
2022-11-12T06:27:01.849Z,12.90
2022-11-12T06:29:30.333Z,13.07
2022-11-12T06:31:57.439Z,12.10
2022-11-12T06:34:24.695Z,12.70
2022-11-12T06:36:52.478Z,12.30
2022-11-12T06:39:19.611Z,13.27
2022-11-12T06:41:46.431Z,13.00
2022-11-12T06:44:17.755Z,14.45
2022-11-12T06:46:47.724Z,13.95
2022-11-12T06:49:14.427Z,13.25
2022-11-12T06:51:41.724Z,14.95
2022-11-12T06:54:08.412Z,14.32
2022-11-12T06:56:35.162Z,14.88
2022-11-12T06:59:02.082Z,13.77
2022-11-12T07:01:29.640Z,12.88
2022-11-12T07:03:56.379Z,13.90
2022-11-12T07:06:23.055Z,13.18
2022-11-12T07:08:51.304Z,14.02
2022-11-12T07:11:19.518Z,14.02
2022-11-12T07:13:47.796Z,14.38
2022-11-12T07:16:19.149Z,14.98
2022-11-12T07:18:47.010Z,15.20
2022-11-12T07:21:15.688Z,14.80
2022-11-12T07:23:42.659Z,15.48
2022-11-12T07:26:21.468Z,15.68
2022-11-12T07:28:50.655Z,13.93
2022-11-12T07:31:19.002Z,14.77
2022-11-12T07:33:46.553Z,15.13
2022-11-12T07:36:15.258Z,15.13
2022-11-12T07:38:43.354Z,14.52
2022-11-12T07:41:24.343Z,14.18
2022-11-12T07:43:53.472Z,14.70
2022-11-12T07:46:23.176Z,16.00
2022-11-12T07:48:50.124Z,15.77
2022-11-12T07:51:22.683Z,14.80
2022-11-12T07:53:53.763Z,14.32
2022-11-12T07:56:26.233Z,15.85
2022-11-12T07:58:53.291Z,14.60
2022-11-12T08:01:30.622Z,13.80
2022-11-12T08:03:58.568Z,12.45
2022-11-12T08:06:25.921Z,12.32
2022-11-12T08:08:53.631Z,12.70
2022-11-12T08:11:20.665Z,13.40
2022-11-12T08:13:47.509Z,13.30
2022-11-12T08:16:14.356Z,13.68
2022-11-12T08:18:41.015Z,14.85
2022-11-12T08:21:09.560Z,17.05
2022-11-12T08:23:36.215Z,17.42
2022-11-12T08:26:05.429Z,16.13
2022-11-12T08:28:34.350Z,17.52
2022-11-12T08:31:11.254Z,15.15
2022-11-12T08:33:38.312Z,19.73
2022-11-12T08:36:06.350Z,19.13
2022-11-12T08:38:33.337Z,20.73
2022-11-12T08:41:01.662Z,21.88
2022-11-12T08:43:28.429Z,21.63
2022-11-12T08:45:55.136Z,20.85
2022-11-12T08:48:21.915Z,18.90
2022-11-12T08:50:48.582Z,19.10
2022-11-12T08:53:15.502Z,17.38
2022-11-12T08:55:42.396Z,17.95
2022-11-12T08:58:10.653Z,18.50
2022-11-12T09:00:43.503Z,18.75
2022-11-12T09:03:18.762Z,18.88
2022-11-12T09:05:45.781Z,18.05
2022-11-12T09:08:17.853Z,17.65
2022-11-12T09:10:45.085Z,18.10
2022-11-12T09:13:12.081Z,17.85
2022-11-12T09:15:39.051Z,17.00
2022-11-12T09:18:09.048Z,16.33
2022-11-12T09:20:35.733Z,16.10
2022-11-12T09:23:05.794Z,17.95
2022-11-12T09:25:32.518Z,18.10
2022-11-12T09:28:06.442Z,17.60
2022-11-12T09:30:33.208Z,19.48
2022-11-12T09:32:59.913Z,18.88
2022-11-12T09:35:26.747Z,20.40
2022-11-12T09:37:53.556Z,19.83
2022-11-12T09:40:20.665Z,20.25
2022-11-12T09:42:53.028Z,22.25
2022-11-12T09:45:30.228Z,21.58
2022-11-12T09:48:02.624Z,20.67
2022-11-12T09:50:34.604Z,18.90
2022-11-12T09:53:15.786Z,17.40
2022-11-12T09:55:44.509Z,18.25
2022-11-12T09:58:16.293Z,19.58
2022-11-12T10:00:53.003Z,19.48
2022-11-12T10:03:44.463Z,20.23
2022-11-12T10:06:19.088Z,19.77
2022-11-12T10:09:19.605Z,18.65
2022-11-12T10:12:34.187Z,19.60
2022-11-12T10:15:39.437Z,21.90
2022-11-12T10:18:30.472Z,21.00
2022-11-12T10:21:48.511Z,22.27
2022-11-12T10:24:15.325Z,22.90
2022-11-12T10:26:42.193Z,25.45
2022-11-12T10:29:18.351Z,27.35
2022-11-12T10:31:45.456Z,27.98
2022-11-12T10:34:22.999Z,20.73
2022-11-12T10:37:01.213Z,22.05
2022-11-12T10:39:39.106Z,19.92
2022-11-12T10:42:09.129Z,21.00
2022-11-12T10:44:36.645Z,20.42
2022-11-12T10:47:26.296Z,18.42
2022-11-12T10:50:16.931Z,19.48
2022-11-12T10:53:03.674Z,18.70
2022-11-12T10:55:37.007Z,18.48
2022-11-12T10:58:30.409Z,18.00
2022-11-12T11:01:14.852Z,18.98
2022-11-12T11:03:54.695Z,18.45
2022-11-12T11:06:23.986Z,17.77
2022-11-12T11:08:53.028Z,18.65
2022-11-12T11:11:24.722Z,19.73
2022-11-12T11:13:55.758Z,20.05
2022-11-12T11:16:27.881Z,19.80
2022-11-12T11:19:00.618Z,20.75
2022-11-12T11:22:04.525Z,19.60
2022-11-12T11:24:41.181Z,21.50
2022-11-12T11:27:49.557Z,25.58
2022-11-12T11:30:21.342Z,19.88
2022-11-12T11:33:20.486Z,17.40
2022-11-12T11:36:09.765Z,17.58
2022-11-12T11:38:42.658Z,16.73
2022-11-12T11:41:31.091Z,16.90
2022-11-12T11:44:07.762Z,16.40
2022-11-12T11:46:51.662Z,16.17
2022-11-12T11:49:47.493Z,15.73
2022-11-12T11:52:48.405Z,15.07
2022-11-12T11:55:36.849Z,15.23
2022-11-12T11:58:14.076Z,15.00
2022-11-12T12:00:46.852Z,16.83
2022-11-12T12:03:42.748Z,16.27
2022-11-12T12:06:28.581Z,15.90
2022-11-12T12:09:15.795Z,16.35
2022-11-12T12:12:21.902Z,16.52
2022-11-12T12:15:03.775Z,15.85
2022-11-12T12:17:59.046Z,22.52
2022-11-12T12:20:52.705Z,20.67
2022-11-12T12:23:38.464Z,18.08
2022-11-12T12:26:11.981Z,17.30
2022-11-12T12:28:56.054Z,21.60
2022-11-12T12:31:33.156Z,20.00
2022-11-12T12:34:03.516Z,17.63
2022-11-12T12:36:39.370Z,15.43
2022-11-12T12:39:18.619Z,15.38
2022-11-12T12:42:17.702Z,15.20
2022-11-12T12:45:05.182Z,14.32
2022-11-12T12:47:37.311Z,16.42
2022-11-12T12:50:08.337Z,16.05
2022-11-12T12:53:04.077Z,16.75
2022-11-12T12:55:39.753Z,17.58
2022-11-12T12:58:36.234Z,19.52
2022-11-12T13:01:13.045Z,18.45
2022-11-12T13:04:12.347Z,16.55
2022-11-12T13:06:41.373Z,16.27
2022-11-12T13:09:24.363Z,15.75
2022-11-12T13:12:24.829Z,15.38
2022-11-12T13:14:54.681Z,14.43
2022-11-12T13:17:47.460Z,16.67
2022-11-12T13:20:33.224Z,15.90
2022-11-12T13:22:59.923Z,14.43
2022-11-12T13:25:31.473Z,14.55
2022-11-12T13:28:06.497Z,14.80
2022-11-12T13:30:57.178Z,14.65
2022-11-12T13:33:31.961Z,13.80
2022-11-12T13:36:25.968Z,14.35
2022-11-12T13:38:56.485Z,13.70
2022-11-12T13:41:45.269Z,11.95
2022-11-12T13:44:16.139Z,11.68
2022-11-12T13:46:43.057Z,11.07
2022-11-12T13:49:15.273Z,12.02
2022-11-12T13:51:47.058Z,10.95
2022-11-12T13:54:34.646Z,11.35
2022-11-12T13:57:30.744Z,11.60
2022-11-12T14:00:23.916Z,11.70
2022-11-12T14:03:06.965Z,11.70
2022-11-12T14:05:35.129Z,12.18
2022-11-12T14:08:21.724Z,13.88
2022-11-12T14:11:21.267Z,13.13
2022-11-12T14:14:12.517Z,13.57
2022-11-12T14:17:02.603Z,12.95
2022-11-12T14:19:55.362Z,13.07
2022-11-12T14:22:22.853Z,14.07
2022-11-12T14:24:54.822Z,14.88
2022-11-12T14:27:39.652Z,14.73
2022-11-12T14:30:17.660Z,21.00
2022-11-12T14:32:46.574Z,19.48
2022-11-12T14:35:32.203Z,19.33
2022-11-12T14:38:27.346Z,17.35
2022-11-12T14:40:56.088Z,17.77
2022-11-12T14:43:54.933Z,16.33
2022-11-12T14:46:40.105Z,14.85
2022-11-12T14:49:23.277Z,15.75
2022-11-12T14:51:55.066Z,14.23
2022-11-12T14:54:50.672Z,15.50
2022-11-12T14:57:21.583Z,13.73
2022-11-12T14:59:48.665Z,14.38
2022-11-12T15:02:32.529Z,14.43
2022-11-12T15:05:19.159Z,18.33
2022-11-12T15:08:00.927Z,17.20
2022-11-12T15:10:34.962Z,14.82
2022-11-12T15:13:13.966Z,14.85
2022-11-12T15:15:51.541Z,15.23
2022-11-12T15:18:20.968Z,14.85
2022-11-12T15:21:18.649Z,15.75
2022-11-12T15:24:02.119Z,16.10
2022-11-12T15:26:48.066Z,15.43
2022-11-12T15:29:32.805Z,24.02
2022-11-12T15:32:14.051Z,14.80
2022-11-12T15:34:46.419Z,13.95
2022-11-12T15:37:25.628Z,25.50
2022-11-12T15:39:55.765Z,25.13
2022-11-12T15:42:34.383Z,15.57
2022-11-12T15:45:02.911Z,16.48
2022-11-12T15:47:29.678Z,14.45
2022-11-12T15:49:58.942Z,13.88
2022-11-12T15:52:26.492Z,14.35
2022-11-12T15:54:53.635Z,16.73
2022-11-12T15:57:27.959Z,15.23
2022-11-12T16:02:34.761Z,13.13
2022-11-12T16:05:01.483Z,13.10
2022-11-12T16:07:28.244Z,13.40
2022-11-12T16:09:55.146Z,14.73
2022-11-12T16:12:22.068Z,13.63
2022-11-12T16:14:48.881Z,14.38
2022-11-12T16:17:16.752Z,13.52
2022-11-12T16:19:43.445Z,13.65
2022-11-12T16:22:12.975Z,15.40
2022-11-12T16:24:40.748Z,14.35
2022-11-12T16:27:10.867Z,14.88
2022-11-12T16:29:37.800Z,13.45
2022-11-12T16:32:04.899Z,12.60
2022-11-12T16:34:31.638Z,13.50
2022-11-12T16:36:58.849Z,13.60
2022-11-12T16:39:25.660Z,12.40
2022-11-12T16:41:52.712Z,12.63
2022-11-12T16:44:19.579Z,12.32
2022-11-12T16:46:46.333Z,12.68
2022-11-12T16:49:14.292Z,11.90
2022-11-12T16:51:42.097Z,12.30
2022-11-12T16:54:09.227Z,12.45
2022-11-12T16:56:36.770Z,14.00
2022-11-12T16:59:04.526Z,15.30
2022-11-12T17:01:32.915Z,13.30
2022-11-12T17:03:59.713Z,14.05
2022-11-12T17:06:36.931Z,11.73
2022-11-12T17:09:08.814Z,11.55
2022-11-12T17:11:36.160Z,12.20
2022-11-12T17:14:04.167Z,11.82
2022-11-12T17:16:31.560Z,10.60
2022-11-12T17:18:59.441Z,10.77
2022-11-12T17:21:26.131Z,10.48
2022-11-12T17:23:55.025Z,10.40
2022-11-12T17:26:22.313Z,9.98
2022-11-12T17:28:51.622Z,11.20
2022-11-12T17:31:23.788Z,11.50
2022-11-12T17:33:52.778Z,10.95
2022-11-12T17:36:25.671Z,10.35
2022-11-12T17:39:00.472Z,10.35
2022-11-12T17:41:31.207Z,10.88
2022-11-12T17:43:59.925Z,11.23
2022-11-12T17:46:27.336Z,11.13
2022-11-12T17:48:55.036Z,12.43
2022-11-12T17:51:25.513Z,10.20
2022-11-12T17:53:52.767Z,8.63
2022-11-12T17:56:23.187Z,9.65
2022-11-12T17:58:51.024Z,9.88
2022-11-12T18:01:21.336Z,9.90
2022-11-12T18:03:50.476Z,10.70
2022-11-12T18:06:23.522Z,11.40
2022-11-12T18:08:56.008Z,10.63
2022-11-12T18:11:24.013Z,10.77
2022-11-12T18:13:51.021Z,10.48
2022-11-12T18:16:26.065Z,11.05
2022-11-12T18:18:57.430Z,10.65
2022-11-12T18:21:25.427Z,13.13
2022-11-12T18:23:53.021Z,10.80
2022-11-12T18:26:21.678Z,10.55
2022-11-12T18:28:56.203Z,10.95
2022-11-12T18:31:25.202Z,13.02
2022-11-12T18:33:52.561Z,13.55
2022-11-12T18:36:24.392Z,12.13
2022-11-12T18:38:52.904Z,13.10
2022-11-12T18:41:25.859Z,12.68
2022-11-12T18:43:53.990Z,14.05
2022-11-12T18:46:21.059Z,14.40
2022-11-12T18:48:47.835Z,14.40
2022-11-12T18:51:16.474Z,15.68
2022-11-12T18:53:44.082Z,15.35
2022-11-12T18:56:13.426Z,16.67
2022-11-12T18:58:40.371Z,17.88
2022-11-12T19:01:12.674Z,15.82
2022-11-12T19:03:42.713Z,17.27
2022-11-12T19:06:13.211Z,21.08
2022-11-12T19:08:40.512Z,21.20
2022-11-12T19:11:09.911Z,20.33
2022-11-12T19:13:37.536Z,22.20
2022-11-12T19:16:24.020Z,22.02
2022-11-12T19:18:51.613Z,23.05
2022-11-12T19:21:22.523Z,22.45
2022-11-12T19:23:53.735Z,21.58
2022-11-12T19:26:22.244Z,22.42
2022-11-12T19:28:49.520Z,23.40
2022-11-12T19:31:19.880Z,22.08
2022-11-12T19:33:47.633Z,22.23
2022-11-12T19:36:16.171Z,21.58
2022-11-12T19:38:42.883Z,21.90
2022-11-12T19:41:17.787Z,21.65
2022-11-12T19:43:46.058Z,22.50
2022-11-12T19:46:12.797Z,23.30
2022-11-12T19:48:39.702Z,24.83
2022-11-12T19:51:08.813Z,25.02
2022-11-12T19:53:44.913Z,23.55
2022-11-12T19:56:13.847Z,25.92
2022-11-12T19:58:44.974Z,24.85
2022-11-12T20:01:14.579Z,26.42
2022-11-12T20:03:42.301Z,28.55
2022-11-12T20:06:18.303Z,26.80
2022-11-12T20:08:45.575Z,27.45
2022-11-12T20:11:13.307Z,28.23
2022-11-12T20:13:40.191Z,27.95
2022-11-12T20:16:13.357Z,27.70
2022-11-12T20:18:40.363Z,27.08
2022-11-12T20:21:07.978Z,28.15
2022-11-12T20:23:35.451Z,26.50
2022-11-12T20:26:04.528Z,28.38
2022-11-12T20:28:33.632Z,27.92
2022-11-12T20:31:05.581Z,28.30
2022-11-12T20:33:36.730Z,26.42
2022-11-12T20:36:15.657Z,29.20
2022-11-12T20:38:43.811Z,28.20
2022-11-12T20:41:14.614Z,26.00
2022-11-12T20:43:41.486Z,26.95
2022-11-12T20:46:08.213Z,27.02
2022-11-12T20:48:38.915Z,31.88
2022-11-12T20:51:25.282Z,29.98
2022-11-12T20:54:00.025Z,33.13
2022-11-12T20:56:29.519Z,33.53
2022-11-12T20:58:56.676Z,36.95
2022-11-12T21:01:24.593Z,36.30
2022-11-12T21:03:51.752Z,34.60
2022-11-12T21:06:21.573Z,39.65
2022-11-12T21:08:48.317Z,37.75
2022-11-12T21:11:16.970Z,37.75
2022-11-12T21:13:44.286Z,33.75
2022-11-12T21:16:12.087Z,31.58
2022-11-12T21:18:39.693Z,33.55
2022-11-12T21:21:18.489Z,33.92
2022-11-12T21:23:45.642Z,31.38
2022-11-12T21:26:17.773Z,30.38
2022-11-12T21:28:46.116Z,27.85
2022-11-12T21:31:35.001Z,26.88
2022-11-12T21:34:04.642Z,25.67
2022-11-12T21:36:34.502Z,23.85
2022-11-12T21:39:01.914Z,24.10
2022-11-12T21:41:30.367Z,25.27
2022-11-12T21:43:57.269Z,22.50
2022-11-12T21:46:30.242Z,23.98
2022-11-12T21:48:57.464Z,21.92
2022-11-12T21:51:27.155Z,19.98
2022-11-12T21:53:58.699Z,17.50
2022-11-12T21:56:26.250Z,18.35
2022-11-12T21:58:54.335Z,20.20
2022-11-12T22:01:23.234Z,21.38
2022-11-12T22:03:51.582Z,19.83
2022-11-12T22:06:20.030Z,17.95
2022-11-12T22:08:46.850Z,15.63
2022-11-12T22:11:15.633Z,17.35
2022-11-12T22:13:42.696Z,16.92
2022-11-12T22:16:20.792Z,15.63
2022-11-12T22:18:50.342Z,19.08
2022-11-12T22:21:23.156Z,18.85
2022-11-12T22:23:49.966Z,17.23
2022-11-12T22:26:21.056Z,17.83
2022-11-12T22:28:48.406Z,17.83
2022-11-12T22:31:17.828Z,19.23
2022-11-12T22:33:44.654Z,20.67
2022-11-12T22:36:13.736Z,21.98
2022-11-12T22:38:42.853Z,24.73
2022-11-12T22:41:14.917Z,20.33
2022-11-12T22:43:41.876Z,23.33
2022-11-12T22:46:13.646Z,24.02
2022-11-12T22:48:40.970Z,19.33
2022-11-12T22:51:14.651Z,18.08
2022-11-12T22:53:41.422Z,17.92
2022-11-12T22:56:09.944Z,18.75
2022-11-12T22:58:37.989Z,18.20
2022-11-12T23:01:06.220Z,18.85
2022-11-12T23:03:34.198Z,16.25
2022-11-12T23:06:04.502Z,17.27
2022-11-12T23:08:31.701Z,16.80
2022-11-12T23:11:03.389Z,14.68
2022-11-12T23:13:30.033Z,13.70
2022-11-12T23:15:56.759Z,12.85
2022-11-12T23:18:23.539Z,10.93
2022-11-12T23:20:50.447Z,11.23
2022-11-12T23:23:17.330Z,11.68
2022-11-12T23:25:44.380Z,12.10
2022-11-12T23:28:11.117Z,13.90
2022-11-12T23:30:38.039Z,13.00
2022-11-12T23:33:04.714Z,13.23
2022-11-12T23:35:31.571Z,12.23
2022-11-12T23:37:58.186Z,12.60
2022-11-12T23:40:30.644Z,10.90
2022-11-12T23:42:57.715Z,11.70
2022-11-12T23:45:24.470Z,12.63
2022-11-12T23:47:51.259Z,11.32
2022-11-12T23:50:17.944Z,12.68
2022-11-12T23:52:44.701Z,10.80
2022-11-12T23:55:11.625Z,10.57
2022-11-12T23:57:38.357Z,10.40
